createdAt,value
2023-04-20T00:12:44.086Z,1.5
2023-04-20T00:28:06.428Z,1.8
2023-04-20T00:43:28.739Z,2
2023-04-20T00:58:51.075Z,2.4
2023-04-20T01:14:14.385Z,2.3
2023-04-20T01:29:36.716Z,2.2
2023-04-20T01:30:59.189Z,2.9
2023-04-20T01:32:22.637Z,5
2023-04-20T01:33:46.079Z,5.7
2023-04-20T01:35:09.524Z,6
2023-04-20T01:36:32.974Z,6
2023-04-20T01:37:56.437Z,6
2023-04-20T01:39:19.884Z,6.4
2023-04-20T01:40:43.332Z,5.8
2023-04-20T01:42:06.790Z,6.2
2023-04-20T01:43:30.228Z,5.8
2023-04-20T01:44:52.713Z,6.3
2023-04-20T01:46:15.181Z,5.8
2023-04-20T01:47:38.620Z,5.5
2023-04-20T01:49:02.070Z,5
2023-04-20T01:50:25.528Z,5.2
2023-04-20T01:51:48.975Z,5.2
2023-04-20T01:53:12.423Z,5.3
2023-04-20T01:54:35.883Z,5.7
2023-04-20T01:55:59.333Z,5
2023-04-20T01:57:22.777Z,5.3
2023-04-20T01:58:46.233Z,5.2
2023-04-20T02:00:09.666Z,4.8
2023-04-20T02:01:33.114Z,5.1
2023-04-20T02:02:56.571Z,5.1
2023-04-20T02:04:19.045Z,5.2
2023-04-20T02:05:42.492Z,5.6
2023-04-20T02:07:05.936Z,5.3
2023-04-20T02:08:29.394Z,5.1
2023-04-20T02:23:52.694Z,2.7
2023-04-20T02:39:16.010Z,2.5
2023-04-20T02:54:39.311Z,2.4
2023-04-20T03:10:01.640Z,1.9
2023-04-20T03:25:23.975Z,1.6
2023-04-20T03:40:46.261Z,2
2023-04-20T03:56:08.543Z,1.9
2023-04-20T04:11:31.796Z,1.8
2023-04-20T04:26:55.072Z,2.2
2023-04-20T04:42:18.345Z,2.4
2023-04-20T04:57:41.604Z,3.6
2023-04-20T05:13:04.867Z,3.8
2023-04-20T05:28:28.133Z,4.2
2023-04-20T05:43:51.386Z,4.3
2023-04-20T05:59:14.670Z,4.6
2023-04-20T06:14:37.915Z,4.4
2023-04-20T06:30:01.187Z,5.1
2023-04-20T06:45:24.441Z,5.4
2023-04-20T07:00:47.705Z,5.2
2023-04-20T07:16:10.002Z,4.2
2023-04-20T07:17:33.402Z,5.4
2023-04-20T07:18:56.818Z,8.9
2023-04-20T07:20:20.219Z,9.3
2023-04-20T07:21:43.639Z,9.8
2023-04-20T07:23:07.052Z,9.5
2023-04-20T07:24:30.457Z,9.4
2023-04-20T07:25:52.890Z,9.1
2023-04-20T07:27:15.309Z,8.7
2023-04-20T07:28:37.747Z,8.1
2023-04-20T07:30:00.180Z,7.7
2023-04-20T07:31:23.586Z,6.9
2023-04-20T07:32:46.016Z,7.3
2023-04-20T07:34:08.444Z,7.5
2023-04-20T07:35:31.854Z,7.2
2023-04-20T07:36:55.256Z,7.2
2023-04-20T07:38:18.670Z,7.1
2023-04-20T07:39:42.077Z,7.1
2023-04-20T07:41:05.496Z,7.4
2023-04-20T07:42:28.901Z,7
2023-04-20T07:43:52.307Z,7.5
2023-04-20T07:45:15.724Z,7.1
2023-04-20T07:46:39.119Z,7.4
2023-04-20T07:48:02.542Z,7.4
2023-04-20T07:49:25.932Z,7.7
2023-04-20T07:50:49.357Z,6.9
2023-04-20T07:52:11.781Z,6.5
2023-04-20T07:53:35.172Z,6.6
2023-04-20T07:54:58.580Z,6.6
2023-04-20T07:56:21.995Z,6.8
2023-04-20T07:57:45.417Z,6.8
2023-04-20T07:59:08.816Z,7.3
2023-04-20T08:00:32.229Z,7.5
2023-04-20T08:01:54.651Z,6.2
2023-04-20T08:03:17.080Z,6.5
2023-04-20T08:04:40.491Z,6.4
2023-04-20T08:06:03.902Z,6.9
2023-04-20T08:07:27.308Z,6.5
2023-04-20T08:08:50.723Z,7.1
2023-04-20T08:10:14.124Z,6.7
2023-04-20T08:11:37.525Z,6.3
2023-04-20T08:13:00.940Z,6.4
2023-04-20T08:14:24.359Z,6.6
2023-04-20T08:15:47.761Z,6.9
2023-04-20T08:17:11.174Z,6.7
2023-04-20T08:18:34.567Z,6.6
2023-04-20T08:19:57.980Z,6.6
2023-04-20T08:21:20.420Z,6.2
2023-04-20T08:22:43.826Z,6.1
2023-04-20T08:24:07.227Z,6.2
2023-04-20T08:25:30.631Z,7.5
2023-04-20T08:26:54.040Z,6.6
2023-04-20T08:28:17.462Z,6.4
2023-04-20T08:29:40.866Z,6.2
2023-04-20T08:31:03.294Z,6
2023-04-20T08:32:25.729Z,6.6
2023-04-20T08:33:49.137Z,6.5
2023-04-20T08:35:12.543Z,6.2
2023-04-20T08:36:35.963Z,6.3
2023-04-20T08:37:59.365Z,7
2023-04-20T08:39:22.773Z,5.7
2023-04-20T08:40:46.184Z,6.1
2023-04-20T08:42:09.582Z,5.8
2023-04-20T08:43:33.003Z,6.3
2023-04-20T08:44:56.396Z,6.8
2023-04-20T08:46:19.813Z,5.9
2023-04-20T08:47:43.222Z,6.6
2023-04-20T08:49:06.638Z,6.4
2023-04-20T08:50:29.047Z,6.5
2023-04-20T08:51:52.476Z,7.3
2023-04-20T08:53:15.869Z,7.3
2023-04-20T08:54:39.278Z,7.6
2023-04-20T08:56:02.700Z,7.4
2023-04-20T08:57:26.101Z,7.6
2023-04-20T08:58:49.513Z,7
2023-04-20T09:00:11.937Z,7.5
2023-04-20T09:01:34.365Z,7.3
2023-04-20T09:02:56.812Z,7.2
2023-04-20T09:04:19.239Z,8.1
2023-04-20T09:05:41.675Z,7.6
2023-04-20T09:07:04.085Z,7.6
2023-04-20T09:08:27.508Z,7.4
2023-04-20T09:09:50.918Z,7.3
2023-04-20T09:11:14.325Z,8
2023-04-20T09:12:37.725Z,8.2
2023-04-20T09:14:01.141Z,8.2
2023-04-20T09:15:24.562Z,8.7
2023-04-20T09:16:47.957Z,8.8
2023-04-20T09:18:11.368Z,9.1
2023-04-20T09:19:34.775Z,8.7
2023-04-20T09:20:58.179Z,8.9
2023-04-20T09:22:21.601Z,9.2
2023-04-20T09:23:45.002Z,9.3
2023-04-20T09:25:07.437Z,8.6
2023-04-20T09:26:30.831Z,9
2023-04-20T09:27:54.238Z,8.1
2023-04-20T09:29:17.650Z,7.8
2023-04-20T09:30:41.056Z,8.4
2023-04-20T09:32:04.473Z,7.9
2023-04-20T09:33:27.877Z,8.3
2023-04-20T09:34:50.318Z,8.2
2023-04-20T09:36:12.744Z,8
2023-04-20T09:37:36.145Z,8
2023-04-20T09:38:59.557Z,7.6
2023-04-20T09:40:22.975Z,7.8
2023-04-20T09:41:46.375Z,7.2
2023-04-20T09:43:09.776Z,7.4
2023-04-20T09:44:33.185Z,7.1
2023-04-20T09:45:56.604Z,7.7
2023-04-20T09:47:20.019Z,7
2023-04-20T09:48:43.411Z,7
2023-04-20T09:50:06.822Z,7.1
2023-04-20T09:51:30.227Z,6.9
2023-04-20T09:52:53.647Z,6.1
2023-04-20T09:54:16.070Z,6.5
2023-04-20T09:55:39.467Z,6.6
2023-04-20T09:57:02.875Z,6.1
2023-04-20T09:58:26.281Z,6.4
2023-04-20T09:59:49.704Z,6.9
2023-04-20T10:01:13.099Z,7.4
2023-04-20T10:02:36.506Z,6.3
2023-04-20T10:03:58.954Z,6.6
2023-04-20T10:05:21.380Z,6.7
2023-04-20T10:06:43.803Z,6.5
2023-04-20T10:08:06.231Z,6
2023-04-20T10:09:28.673Z,6.3
2023-04-20T10:10:51.096Z,6.5
2023-04-20T10:12:13.515Z,6.2
2023-04-20T10:13:36.938Z,6.1
2023-04-20T10:15:00.351Z,6.4
2023-04-20T10:16:23.759Z,5.8
2023-04-20T10:17:47.175Z,5.9
2023-04-20T10:19:10.569Z,6.1
2023-04-20T10:20:33.988Z,6.3
2023-04-20T10:21:57.391Z,6.9
2023-04-20T10:23:20.795Z,6.5
2023-04-20T10:24:44.210Z,6.9
2023-04-20T10:26:07.626Z,6.3
2023-04-20T10:27:31.033Z,6.5
2023-04-20T10:28:54.443Z,6.2
2023-04-20T10:30:16.849Z,6.1
2023-04-20T10:31:40.266Z,6.1
2023-04-20T10:33:03.673Z,5.8
2023-04-20T10:34:27.093Z,6.1
2023-04-20T10:35:50.501Z,6.2
2023-04-20T10:37:13.900Z,5.9
2023-04-20T10:38:36.346Z,6.3
2023-04-20T10:39:58.778Z,6.4
2023-04-20T10:41:21.219Z,6
2023-04-20T10:42:43.639Z,6.9
2023-04-20T10:44:07.053Z,6.4
2023-04-20T10:45:30.459Z,6.3
2023-04-20T10:46:53.858Z,6.3
2023-04-20T10:48:17.269Z,6.1
2023-04-20T10:49:40.672Z,6.4
2023-04-20T10:51:04.079Z,6.4
2023-04-20T10:52:27.501Z,6
2023-04-20T10:53:50.905Z,6.6
2023-04-20T10:55:14.307Z,6.8
2023-04-20T10:56:37.707Z,5.9
2023-04-20T10:58:01.119Z,5.7
2023-04-20T10:59:24.533Z,5.5
2023-04-20T11:00:46.964Z,5.4
2023-04-20T11:02:10.370Z,5.5
2023-04-20T11:03:33.777Z,5.9
2023-04-20T11:04:57.185Z,5.7
2023-04-20T11:06:20.587Z,5.6
2023-04-20T11:07:44.000Z,5.5
2023-04-20T11:09:07.417Z,5.5
2023-04-20T11:10:29.842Z,5.4
2023-04-20T11:11:52.266Z,5.8
2023-04-20T11:13:15.686Z,5.8
2023-04-20T11:14:39.086Z,5.6
2023-04-20T11:16:02.494Z,5.8
2023-04-20T11:17:25.901Z,6.2
2023-04-20T11:18:49.313Z,5.6
2023-04-20T11:20:12.720Z,6
2023-04-20T11:21:36.144Z,5.8
2023-04-20T11:22:59.532Z,5.7
2023-04-20T11:24:22.950Z,5.9
2023-04-20T11:25:46.352Z,5.9
2023-04-20T11:27:09.770Z,5.8
2023-04-20T11:28:33.172Z,5.9
2023-04-20T11:29:55.609Z,5.8
2023-04-20T11:31:19.001Z,5.8
2023-04-20T11:32:42.417Z,5.1
2023-04-20T11:34:05.824Z,6
2023-04-20T11:35:29.236Z,5.8
2023-04-20T11:36:52.651Z,5.5
2023-04-20T11:38:16.052Z,5.8
2023-04-20T11:39:38.484Z,5.6
2023-04-20T11:41:00.910Z,6.1
2023-04-20T11:42:23.344Z,5.6
2023-04-20T11:43:45.779Z,5.4
2023-04-20T11:45:09.197Z,5.5
2023-04-20T11:46:32.599Z,5.8
2023-04-20T11:47:56.002Z,5.4
2023-04-20T11:49:19.424Z,6.1
2023-04-20T11:50:42.840Z,5.8
2023-04-20T11:52:06.246Z,5.9
2023-04-20T11:53:29.639Z,6.4
2023-04-20T11:54:53.055Z,6.5
2023-04-20T11:56:16.458Z,6.9
2023-04-20T11:57:39.863Z,6.7
2023-04-20T11:59:03.275Z,7
2023-04-20T12:00:26.697Z,7.2
2023-04-20T12:01:49.106Z,7.5
2023-04-20T12:03:12.530Z,7.6
2023-04-20T12:04:35.933Z,7.9
2023-04-20T12:05:59.345Z,7.7
2023-04-20T12:07:22.755Z,7.9
2023-04-20T12:08:46.163Z,7.5
2023-04-20T12:10:09.559Z,8.7
2023-04-20T12:11:32.001Z,8.5
2023-04-20T12:12:54.429Z,8.6
2023-04-20T12:14:16.858Z,8.6
2023-04-20T12:15:39.286Z,8.6
2023-04-20T12:17:01.709Z,8.7
2023-04-20T12:18:24.134Z,8.5
2023-04-20T12:19:47.542Z,9
2023-04-20T12:21:10.966Z,8.6
2023-04-20T12:22:34.368Z,8.6
2023-04-20T12:23:57.785Z,8.3
2023-04-20T12:25:21.179Z,8.2
2023-04-20T12:26:44.596Z,8.5
2023-04-20T12:28:08.012Z,8.8
2023-04-20T12:29:31.402Z,8.7
2023-04-20T12:30:54.819Z,8.3
2023-04-20T12:32:18.230Z,8.1
2023-04-20T12:33:41.639Z,8.6
2023-04-20T12:35:05.043Z,8.3
2023-04-20T12:36:27.465Z,8.6
2023-04-20T12:37:50.892Z,8.3
2023-04-20T12:39:14.294Z,8.6
2023-04-20T12:40:37.707Z,8.4
2023-04-20T12:42:01.112Z,8.9
2023-04-20T12:43:24.507Z,9.1
2023-04-20T12:44:47.926Z,8.2
2023-04-20T12:46:10.350Z,8.9
2023-04-20T12:47:32.791Z,9.6
2023-04-20T12:48:56.190Z,9.2
2023-04-20T12:50:19.603Z,9.5
2023-04-20T12:51:43.014Z,9.3
2023-04-20T12:53:06.425Z,9.7
2023-04-20T12:54:29.836Z,9.8
2023-04-20T12:55:53.229Z,9.8
2023-04-20T12:57:16.635Z,9.4
2023-04-20T12:58:40.065Z,9.7
2023-04-20T13:00:03.463Z,10
2023-04-20T13:01:26.874Z,9.6
2023-04-20T13:02:50.279Z,9.5
2023-04-20T13:04:13.675Z,9.1
2023-04-20T13:05:36.107Z,9.6
2023-04-20T13:06:59.526Z,9.8
2023-04-20T13:08:22.939Z,9.1
2023-04-20T13:09:46.348Z,10
2023-04-20T13:11:09.751Z,9.7
2023-04-20T13:12:33.169Z,9.5
2023-04-20T13:13:56.566Z,10.1
2023-04-20T13:15:19.000Z,10
2023-04-20T13:16:41.450Z,10.8
2023-04-20T13:18:04.850Z,10.4
2023-04-20T13:19:28.270Z,10.4
2023-04-20T13:20:51.000Z,10.2
2023-04-20T13:22:15.085Z,10.3
2023-04-20T13:23:38.483Z,10.1
2023-04-20T13:25:01.891Z,10
2023-04-20T13:26:25.313Z,11
2023-04-20T13:27:48.708Z,9.7
2023-04-20T13:29:12.126Z,10.2
2023-04-20T13:30:35.547Z,9.9
2023-04-20T13:31:58.955Z,9.9
2023-04-20T13:33:22.370Z,10.3
2023-04-20T13:34:44.790Z,10.2
2023-04-20T13:36:08.197Z,10.6
2023-04-20T13:37:31.608Z,10.9
2023-04-20T13:38:55.012Z,10.6
2023-04-20T13:40:18.414Z,10.6
2023-04-20T13:41:41.832Z,10.3
2023-04-20T13:43:05.241Z,11.4
2023-04-20T13:44:27.685Z,10.8
2023-04-20T13:45:50.094Z,11.1
2023-04-20T13:47:12.526Z,10.6
2023-04-20T13:48:34.968Z,10.9
2023-04-20T13:49:57.394Z,11
2023-04-20T13:51:19.821Z,11.1
2023-04-20T13:52:42.261Z,11.6
2023-04-20T13:54:04.691Z,11.3
2023-04-20T13:55:28.086Z,11.2
2023-04-20T13:56:51.499Z,11.3
2023-04-20T13:58:14.913Z,11.2
2023-04-20T13:59:38.324Z,11.8
2023-04-20T14:01:01.717Z,11.1
2023-04-20T14:02:25.142Z,12.1
2023-04-20T14:03:48.550Z,11.1
2023-04-20T14:05:11.965Z,12.2
2023-04-20T14:06:35.361Z,11.4
2023-04-20T14:07:58.771Z,12
2023-04-20T14:09:22.182Z,12
2023-04-20T14:10:45.594Z,11.6
2023-04-20T14:12:08.024Z,12.5
2023-04-20T14:13:31.434Z,12.5
2023-04-20T14:14:54.845Z,12.6
2023-04-20T14:16:18.252Z,12
2023-04-20T14:17:41.653Z,12.4
2023-04-20T14:19:05.050Z,12.8
2023-04-20T14:20:28.475Z,12.3
2023-04-20T14:21:50.908Z,12.7
2023-04-20T14:23:13.318Z,12.7
2023-04-20T14:24:36.730Z,12.9
2023-04-20T14:25:59.189Z,12.9
2023-04-20T14:27:21.601Z,12.6
2023-04-20T14:28:45.011Z,12.8
2023-04-20T14:30:08.435Z,12.8
2023-04-20T14:31:31.834Z,12.5
2023-04-20T14:32:55.250Z,12.6
2023-04-20T14:34:18.655Z,12.6
2023-04-20T14:35:42.049Z,13.6
2023-04-20T14:37:05.466Z,12.8
2023-04-20T14:38:28.885Z,13.5
2023-04-20T14:39:52.288Z,13
2023-04-20T14:41:15.708Z,12.8
2023-04-20T14:42:39.122Z,12.3
2023-04-20T14:44:02.533Z,12.5
2023-04-20T14:45:24.945Z,13.1
2023-04-20T14:46:48.350Z,12.9
2023-04-20T14:48:11.782Z,12.5
2023-04-20T14:49:35.192Z,12.7
2023-04-20T14:50:57.612Z,12.7
2023-04-20T14:52:21.023Z,12
2023-04-20T14:53:44.430Z,12.5
2023-04-20T14:55:06.862Z,12
2023-04-20T14:56:29.294Z,11.9
2023-04-20T14:57:52.708Z,12.6
2023-04-20T14:59:16.103Z,12.9
2023-04-20T15:00:39.528Z,11.9
2023-04-20T15:02:02.000Z,12.2
2023-04-20T15:04:49.750Z,12.4
2023-04-20T15:06:13.154Z,11.2
2023-04-20T15:07:36.570Z,11.3
2023-04-20T15:08:59.986Z,10.6
2023-04-20T15:10:23.392Z,11
2023-04-20T15:11:46.799Z,11
2023-04-20T15:13:10.195Z,11.1
2023-04-20T15:14:32.634Z,10.7
2023-04-20T15:15:56.029Z,10.9
2023-04-20T15:17:19.451Z,11.5
2023-04-20T15:18:42.852Z,10.5
2023-04-20T15:20:06.264Z,11.1
2023-04-20T15:21:29.671Z,10.7
2023-04-20T15:22:53.082Z,10.5
2023-04-20T15:24:16.503Z,10.3
2023-04-20T15:25:38.931Z,10.7
2023-04-20T15:27:01.359Z,10.7
2023-04-20T15:28:24.752Z,10.3
2023-04-20T15:29:48.178Z,10.6
2023-04-20T15:31:11.593Z,10.8
2023-04-20T15:32:34.992Z,10.6
2023-04-20T15:33:58.000Z,10.6
2023-04-20T15:35:21.828Z,10.3
2023-04-20T15:36:45.227Z,10.2
2023-04-20T15:38:08.632Z,10.6
2023-04-20T15:39:32.038Z,10.6
2023-04-20T15:40:55.447Z,10.1
2023-04-20T15:42:18.854Z,10.4
2023-04-20T15:43:42.271Z,10.3
2023-04-20T15:45:04.708Z,10.4
2023-04-20T15:46:28.119Z,10.7
2023-04-20T15:47:51.514Z,10.3
2023-04-20T15:49:14.922Z,10.1
2023-04-20T15:50:38.338Z,10.2
2023-04-20T15:52:01.745Z,10.7
2023-04-20T15:53:25.146Z,10.4
2023-04-20T15:54:47.598Z,11
2023-04-20T15:56:10.017Z,10.5
2023-04-20T15:57:33.419Z,10.8
2023-04-20T15:58:56.834Z,11.2
2023-04-20T16:00:20.254Z,10.7
2023-04-20T16:01:43.667Z,10.7
2023-04-20T16:03:07.066Z,11.5
2023-04-20T16:04:30.478Z,11.6
2023-04-20T16:05:53.884Z,11.1
2023-04-20T16:07:17.293Z,11
2023-04-20T16:08:40.700Z,11.5
2023-04-20T16:10:04.108Z,11.1
2023-04-20T16:11:27.510Z,11
2023-04-20T16:12:50.922Z,11.3
2023-04-20T16:14:13.360Z,11.8
2023-04-20T16:15:36.771Z,11.1
2023-04-20T16:17:00.172Z,10.9
2023-04-20T16:18:23.588Z,11.5
2023-04-20T16:19:46.990Z,11.9
2023-04-20T16:21:10.397Z,11.2
2023-04-20T16:22:33.811Z,11.3
2023-04-20T16:23:56.253Z,11.3
2023-04-20T16:25:18.667Z,11.6
2023-04-20T16:26:41.099Z,12
2023-04-20T16:28:03.535Z,11.4
2023-04-20T16:29:25.979Z,11.6
2023-04-20T16:30:48.397Z,11.1
2023-04-20T16:32:10.822Z,11.4
2023-04-20T16:33:33.264Z,11
2023-04-20T16:34:56.000Z,11.2
2023-04-20T16:36:20.067Z,11.5
2023-04-20T16:37:43.489Z,11.8
2023-04-20T16:39:06.882Z,11.8
2023-04-20T16:40:30.299Z,11.3
2023-04-20T16:41:53.707Z,11.3
2023-04-20T16:43:17.108Z,11.5
2023-04-20T16:44:40.517Z,12.4
2023-04-20T16:46:03.944Z,11.3
2023-04-20T16:47:27.353Z,11.3
2023-04-20T16:48:50.754Z,10.9
2023-04-20T16:50:14.162Z,11.3
2023-04-20T16:51:36.596Z,12.1
2023-04-20T16:52:59.996Z,11.6
2023-04-20T16:54:23.408Z,11.6
2023-04-20T16:55:46.815Z,11
2023-04-20T16:57:10.212Z,11.8
2023-04-20T16:58:33.625Z,11.6
2023-04-20T16:59:57.045Z,11.5
2023-04-20T17:01:19.470Z,11.6
2023-04-20T17:02:41.897Z,11.5
2023-04-20T17:04:04.341Z,11.5
2023-04-20T17:05:26.768Z,11.6
2023-04-20T17:06:50.179Z,11.1
2023-04-20T17:08:13.577Z,11.4
2023-04-20T17:09:36.986Z,12
2023-04-20T17:11:00.399Z,11.9
2023-04-20T17:12:23.815Z,12.3
2023-04-20T17:13:47.228Z,11.7
2023-04-20T17:15:10.619Z,12.3
2023-04-20T17:16:34.037Z,12.1
2023-04-20T17:17:57.437Z,13.1
2023-04-20T17:19:20.848Z,12.4
2023-04-20T17:20:44.271Z,12.6
2023-04-20T17:22:07.669Z,14.8
2023-04-20T17:23:30.099Z,14.7
2023-04-20T17:24:53.498Z,12.4
2023-04-20T17:26:16.906Z,13.1
2023-04-20T17:27:40.313Z,12.3
2023-04-20T17:29:03.729Z,12.2
2023-04-20T17:30:27.140Z,11.9
2023-04-20T17:31:50.541Z,12.1
2023-04-20T17:33:12.979Z,12.7
2023-04-20T17:34:35.402Z,12.4
2023-04-20T17:35:57.843Z,12.5
2023-04-20T17:37:20.260Z,12.4
2023-04-20T17:38:43.683Z,13.2
2023-04-20T17:40:07.082Z,14.5
2023-04-20T17:41:30.502Z,15.1
2023-04-20T17:42:53.897Z,13.5
2023-04-20T17:44:17.321Z,13.5
2023-04-20T17:45:40.733Z,14.9
2023-04-20T17:47:04.121Z,14
2023-04-20T17:48:27.529Z,13.6
2023-04-20T17:49:50.961Z,13.8
2023-04-20T17:51:14.359Z,13.7
2023-04-20T17:52:37.768Z,13.1
2023-04-20T17:54:01.184Z,12.8
2023-04-20T17:55:23.602Z,13.3
2023-04-20T17:56:47.009Z,12.7
2023-04-20T17:58:10.428Z,12.8
2023-04-20T17:59:33.825Z,13.2
2023-04-20T18:00:57.222Z,13.6
2023-04-20T18:02:20.630Z,13.1
2023-04-20T18:03:44.041Z,13.1
2023-04-20T18:05:06.482Z,13.4
2023-04-20T18:06:28.917Z,14
2023-04-20T18:07:51.350Z,13.5
2023-04-20T18:09:13.778Z,14.7
2023-04-20T18:10:37.177Z,13.9
2023-04-20T18:12:00.576Z,13.7
2023-04-20T18:13:23.988Z,13.8
2023-04-20T18:14:47.408Z,13.7
2023-04-20T18:16:10.816Z,14.2
2023-04-20T18:17:34.217Z,13.7
2023-04-20T18:18:57.636Z,13.2
2023-04-20T18:20:21.039Z,13.6
2023-04-20T18:21:44.442Z,13.9
2023-04-20T18:23:07.850Z,14.3
2023-04-20T18:24:31.270Z,13.7
2023-04-20T18:25:54.682Z,14.1
2023-04-20T18:27:17.104Z,14.1
2023-04-20T18:28:40.510Z,15.2
2023-04-20T18:30:03.933Z,14.9
2023-04-20T18:31:27.337Z,15.7
2023-04-20T18:32:50.735Z,15.5
2023-04-20T18:34:14.138Z,15.4
2023-04-20T18:35:37.548Z,15.6
2023-04-20T18:36:59.994Z,16.6
2023-04-20T18:38:22.464Z,16.5
2023-04-20T18:39:44.902Z,16.9
2023-04-20T18:41:07.336Z,17.1
2023-04-20T18:42:30.731Z,16.9
2023-04-20T18:43:54.191Z,16.7
2023-04-20T18:45:17.632Z,16.3
2023-04-20T18:46:41.092Z,16
2023-04-20T18:48:04.545Z,16.2
2023-04-20T18:49:28.000Z,16.4
2023-04-20T18:50:51.445Z,16.4
2023-04-20T18:52:14.889Z,17.1
2023-04-20T18:53:38.350Z,16.6
2023-04-20T18:55:01.790Z,16.8
2023-04-20T18:56:25.248Z,16.9
2023-04-20T18:57:48.695Z,17.2
2023-04-20T18:59:11.160Z,16.2
2023-04-20T19:00:34.622Z,15.8
2023-04-20T19:01:58.067Z,15.6
2023-04-20T19:03:21.000Z,15.5
2023-04-20T19:04:44.957Z,15.6
2023-04-20T19:06:08.426Z,14.8
2023-04-20T19:07:31.858Z,15.5
2023-04-20T19:08:54.355Z,15.6
2023-04-20T19:10:16.819Z,14.2
2023-04-20T19:11:40.258Z,15
2023-04-20T19:13:03.716Z,13.5
2023-04-20T19:14:27.174Z,14.3
2023-04-20T19:15:50.612Z,14.1
2023-04-20T19:17:14.064Z,13.8
2023-04-20T19:18:37.525Z,13.6
2023-04-20T19:20:00.961Z,13.3
2023-04-20T19:21:24.421Z,13.7
2023-04-20T19:22:47.861Z,13.6
2023-04-20T19:24:11.328Z,14.2
2023-04-20T19:25:34.778Z,14.7
2023-04-20T19:26:58.222Z,14
2023-04-20T19:28:20.691Z,14.2
2023-04-20T19:29:43.154Z,13.4
2023-04-20T19:31:06.617Z,13.6
2023-04-20T19:32:30.065Z,15.1
2023-04-20T19:33:53.504Z,15
2023-04-20T19:35:16.953Z,14.5
2023-04-20T19:36:40.404Z,14.2
2023-04-20T19:38:02.898Z,14.5
2023-04-20T19:39:25.345Z,14.2
2023-04-20T19:40:47.822Z,13.7
2023-04-20T19:42:10.288Z,14.1
2023-04-20T19:43:32.776Z,14.9
2023-04-20T19:44:55.243Z,14.1
2023-04-20T19:46:18.681Z,14.4
2023-04-20T19:47:42.147Z,16
2023-04-20T19:49:05.606Z,16.7
2023-04-20T19:50:29.054Z,17.2
2023-04-20T19:51:52.504Z,16
2023-04-20T19:53:15.953Z,15.5
2023-04-20T19:54:39.406Z,16.3
2023-04-20T19:56:02.845Z,16
2023-04-20T19:57:26.302Z,15.6
2023-04-20T19:58:49.757Z,15.2
2023-04-20T20:00:13.207Z,14.6
2023-04-20T20:01:36.653Z,15
2023-04-20T20:02:59.115Z,15.2
2023-04-20T20:04:22.566Z,14.7
2023-04-20T20:05:46.012Z,15.4
2023-04-20T20:07:09.456Z,14.9
2023-04-20T20:08:32.921Z,15.5
2023-04-20T20:09:56.362Z,14.6
2023-04-20T20:25:19.664Z,6.2
2023-04-20T20:40:41.987Z,5.7
2023-04-20T20:56:04.313Z,5.7
2023-04-20T21:11:26.637Z,7
2023-04-20T21:26:48.962Z,6.5
2023-04-20T21:42:12.261Z,6.5
2023-04-20T21:57:35.567Z,6.7
2023-04-20T22:12:58.853Z,6.6
2023-04-20T22:28:22.156Z,7.4
2023-04-20T22:43:45.455Z,7
2023-04-20T22:59:08.745Z,9.2
2023-04-20T23:14:32.055Z,8.5
2023-04-20T23:29:55.343Z,8.8
2023-04-20T23:45:18.653Z,8.4
